Weather History for Perry, IA

Change the Weather History Date:

Saturday, February 23, 2013

  Actual Average Record
Temperature  
Mean Temperature 16 °F -  
Max Temperature 29 °F 38 °F 64 °F (1984)
Min Temperature 3 °F 18 °F -15 °F (1989)
Degree Days  
Heating Degree Days 49    
Moisture  
Dew Point 12 °F    
Average Humidity 86    
Maximum Humidity 95    
Minimum Humidity 67    
Precipitation  
Precipitation 0.00 in - - ()
Sea Level Pressure  
Sea Level Pressure 29.93 in    
Wind  
Wind Speed 7 mph (SSW)    
Max Wind Speed 12 mph    
Max Gust Speed -    
Visibility 9 miles    
Events      
Averages and records for this station are not official NWS values.
T = Trace of Precipitation, MM = Missing Value Source: NWS Daily Summary

Daily Weather History Graph

Daily Weather History Graph

Search for Another Location

Airport:

Trip Planner

Search our weather history database for the weather conditions in past years. The results will help you decide how hot, cold, wet, or windy it might be!

Date:

Astronomy

Feb. 23, 2013 Rise Set
Actual Time 7:00 AM CST 6:00 PM CST
Civil Twilight 6:32 AM CST 6:28 PM CST
Nautical Twilight 5:59 AM CST 7:00 PM CST
Astronomical Twilight 5:27 AM CST 7:32 PM CST
Moon 4:10 PM CST (2/23) 5:24 AM CST (2/23)
Length of Visible Light 11h 56m
Length of Day
10h 59m
Waxing Gibbous, 95% of the Moon is Illuminated
Feb 23
Waxing Gibbous
Feb 25
Full
Mar 4
Last Quarter
Mar 11
New
Mar 19
First Quarter

Hourly Weather History & Observations

Time (CST) Temp. Windchill Dew Point Humidity Pressure Visibility Wind Dir Wind Speed Gust Speed Precip Events Conditions
12:15 AM 16.7 °F 3.8 °F 13.5 °F 87% 29.97 in 10.0 mi West 11.5 mph - N/A   Scattered Clouds
12:35 AM 13.8 °F 0.2 °F 11.3 °F 90% 29.97 in 10.0 mi West 11.5 mph - N/A   Clear
12:55 AM 14.2 °F 2.2 °F 11.8 °F 90% 29.97 in 10.0 mi West 9.2 mph - N/A   Clear
1:15 AM 13.8 °F 2.7 °F 11.7 °F 91% 29.97 in 10.0 mi West 8.1 mph - N/A   Clear
1:35 AM 11.8 °F 2.5 °F 9.5 °F 90% 29.97 in 10.0 mi West 5.8 mph - N/A   Clear
1:55 AM 12.4 °F 3.1 °F 10.6 °F 92% 29.96 in 10.0 mi West 5.8 mph - N/A   Clear
2:15 AM 12.2 °F 2.9 °F 10.2 °F 92% 29.96 in 10.0 mi West 5.8 mph - N/A   Clear
2:35 AM 11.3 °F 3.3 °F 9.5 °F 92% 29.96 in 10.0 mi West 4.6 mph - N/A   Clear
2:55 AM 11.7 °F -1.7 °F 9.5 °F 91% 29.96 in 10.0 mi WSW 10.4 mph - N/A   Clear
3:15 AM 10.9 °F -1.8 °F 8.6 °F 90% 29.96 in 10.0 mi WSW 9.2 mph - N/A   Clear
3:35 AM 8.8 °F -1.1 °F 7.0 °F 92% 29.95 in 10.0 mi West 5.8 mph - N/A   Clear
4:15 AM 7.3 °F -5.2 °F 5.7 °F 93% 29.94 in 10.0 mi West 8.1 mph - N/A   Clear
4:35 AM 5.4 °F -8.6 °F 3.2 °F 91% 29.95 in 10.0 mi WSW 9.2 mph - N/A   Clear
4:55 AM 4.8 °F -9.3 °F 2.8 °F 92% 29.95 in 10.0 mi WSW 9.2 mph - N/A   Clear
5:15 AM 5.4 °F -8.6 °F 3.6 °F 92% 29.95 in 10.0 mi WSW 9.2 mph - N/A   Clear
5:35 AM 5.9 °F -7.0 °F 4.1 °F 92% 29.95 in 10.0 mi WSW 8.1 mph - N/A   Clear
5:55 AM 7.5 °F -2.6 °F 6.1 °F 94% 29.96 in 10.0 mi WSW 5.8 mph - N/A   Clear
6:15 AM 4.5 °F -10.7 °F 2.1 °F 90% 29.96 in 10.0 mi WSW 10.4 mph - N/A   Clear
6:35 AM 4.3 °F -7.8 °F 2.3 °F 91% 29.96 in 10.0 mi WSW 6.9 mph - N/A   Clear
6:55 AM 3.4 °F -8.9 °F 1.2 °F 91% 29.95 in 7.0 mi WSW 6.9 mph - N/A   Clear
7:15 AM 4.1 °F -5.1 °F 2.1 °F 91% 29.95 in 7.0 mi WSW 4.6 mph - N/A   Clear
7:35 AM 5.5 °F - 3.9 °F 93% 29.95 in 7.0 mi Calm Calm - N/A   Clear
7:55 AM 4.3 °F -6.5 °F 1.9 °F 90% 29.95 in 5.0 mi SW 5.8 mph - N/A   Clear
8:15 AM 4.5 °F -9.8 °F 2.5 °F 91% 29.95 in 7.0 mi WSW 9.2 mph - N/A   Clear
8:35 AM 7.0 °F -3.3 °F 4.8 °F 91% 29.95 in 7.0 mi SSW 5.8 mph - N/A   Clear
8:55 AM 7.9 °F -3.5 °F 5.9 °F 92% 29.95 in 7.0 mi SSW 6.9 mph - N/A   Clear
9:15 AM 10.0 °F -0.9 °F 7.9 °F 91% 29.95 in 7.0 mi SW 6.9 mph - N/A   Clear
9:35 AM 11.3 °F -0.4 °F 8.8 °F 90% 29.95 in 10.0 mi SW 8.1 mph - N/A   Clear
9:55 AM 12.4 °F 3.1 °F 9.9 °F 90% 29.95 in 7.0 mi SW 5.8 mph - N/A   Clear
10:15 AM 13.6 °F 6.0 °F 10.4 °F 87% 29.95 in 7.0 mi SSW 4.6 mph - N/A   Clear
10:35 AM 14.5 °F 5.7 °F 10.4 °F 84% 29.95 in 7.0 mi South 5.8 mph - N/A   Clear
10:55 AM 16.5 °F - 11.5 °F 81% 29.95 in 7.0 mi Calm Calm - N/A   Clear
11:15 AM 17.8 °F 12.5 °F 12.2 °F 79% 29.95 in 7.0 mi South 3.5 mph - N/A   Clear
11:35 AM 19.2 °F 14.1 °F 13.5 °F 78% 29.94 in 7.0 mi South 3.5 mph - N/A   Clear
12:15 PM 22.3 °F - 15.4 °F 75% 29.93 in 7.0 mi Calm Calm - N/A   Clear
12:35 PM 23.9 °F - 15.8 °F 71% 29.92 in 7.0 mi Calm Calm - N/A   Clear
12:55 PM 24.8 °F 20.5 °F 17.1 °F 72% 29.92 in 10.0 mi South 3.5 mph - N/A   Clear
1:15 PM 25.5 °F 21.3 °F 18.1 °F 74% 29.91 in 10.0 mi South 3.5 mph - N/A   Clear
1:35 PM 27.5 °F 22.2 °F 19.2 °F 71% 29.90 in 10.0 mi South 4.6 mph - N/A   Clear
1:55 PM 28.6 °F 21.5 °F 18.9 °F 67% 29.90 in 10.0 mi SSW 6.9 mph - N/A   Clear
2:15 PM 28.9 °F 21.9 °F 20.1 °F 70% 29.89 in 10.0 mi South 6.9 mph - N/A   Clear
2:35 PM 29.1 °F 22.1 °F 19.8 °F 68% 29.89 in 10.0 mi South 6.9 mph - N/A   Clear
2:55 PM 29.3 °F 21.5 °F 19.4 °F 67% 29.89 in 10.0 mi South 8.1 mph - N/A   Clear
3:15 PM 29.1 °F 20.0 °F 20.1 °F 69% 29.89 in 10.0 mi South 10.4 mph - N/A   Clear
3:35 PM 29.3 °F 20.8 °F 20.3 °F 69% 29.88 in 10.0 mi South 9.2 mph - N/A   Clear
3:55 PM 28.9 °F 20.4 °F 20.5 °F 71% 29.88 in 10.0 mi SSE 9.2 mph - N/A   Clear
4:15 PM 28.4 °F 21.2 °F 20.7 °F 73% 29.88 in 10.0 mi SSE 6.9 mph - N/A   Clear
4:35 PM 28.2 °F 21.0 °F 20.8 °F 74% 29.88 in 10.0 mi SSE 6.9 mph - N/A   Clear
5:15 PM 26.1 °F 17.6 °F 19.9 °F 78% 29.87 in 10.0 mi SSE 8.1 mph - N/A   Clear
5:35 PM 24.8 °F 16.9 °F 19.4 °F 80% 29.88 in 10.0 mi SSE 6.9 mph - N/A   Clear
5:55 PM 22.6 °F 14.3 °F 17.8 °F 82% 29.88 in 10.0 mi SSE 6.9 mph - N/A   Clear
6:15 PM 20.8 °F 11.2 °F 16.9 °F 85% 29.87 in 10.0 mi SSE 8.1 mph - N/A   Clear
6:35 PM 20.1 °F 11.3 °F 15.6 °F 83% 29.88 in 10.0 mi South 6.9 mph - N/A   Clear
6:55 PM 19.2 °F 12.5 °F 15.1 °F 84% 29.88 in 10.0 mi SSE 4.6 mph - N/A   Clear
7:15 PM 18.3 °F 10.2 °F 15.1 °F 87% 29.89 in 10.0 mi SSE 5.8 mph - N/A   Clear
7:35 PM 17.4 °F 8.0 °F 14.7 °F 89% 29.88 in 10.0 mi SSE 6.9 mph - N/A   Clear
7:55 PM 16.0 °F 5.3 °F 13.6 °F 90% 29.89 in 10.0 mi SE 8.1 mph - N/A   Clear
8:15 PM 15.8 °F 7.2 °F 13.6 °F 91% 29.89 in 10.0 mi SE 5.8 mph - N/A   Clear
8:35 PM 16.7 °F 8.3 °F 14.4 °F 91% 29.89 in 10.0 mi SE 5.8 mph - N/A   Clear
8:55 PM 17.1 °F 10.0 °F 14.9 °F 91% 29.90 in 10.0 mi ESE 4.6 mph - N/A   Clear
9:15 PM 17.8 °F 12.5 °F 15.4 °F 91% 29.91 in 10.0 mi ESE 3.5 mph - N/A   Clear
9:35 PM 15.8 °F 8.6 °F 13.3 °F 90% 29.90 in 10.0 mi SE 4.6 mph - N/A   Clear
9:55 PM 14.5 °F 8.8 °F 13.1 °F 94% 29.92 in 10.0 mi SE 3.5 mph - N/A   Clear
10:15 PM 15.6 °F 7.0 °F 14.0 °F 93% 29.92 in 10.0 mi SE 5.8 mph - N/A   Clear
10:35 PM 16.0 °F 7.4 °F 14.7 °F 95% 29.91 in 10.0 mi SE 5.8 mph - N/A   Clear
10:55 PM 14.9 °F 5.0 °F 13.6 °F 95% 29.91 in 10.0 mi SE 6.9 mph - N/A   Clear
11:15 PM 14.9 °F 7.5 °F 12.6 °F 90% 29.92 in 10.0 mi SE 4.6 mph - N/A   Clear
11:35 PM 14.0 °F 3.9 °F 12.6 °F 94% 29.92 in 10.0 mi SSE 6.9 mph - N/A   Clear
11:55 PM 14.0 °F 8.2 °F 11.7 °F 90% 29.91 in 10.0 mi ESE 3.5 mph - N/A   Clear